• Join FlightAware (Why Join?)
  • Login
  • US Flag 
08:06PM EDT


 

Airport Tracker/Info


-or-


 

Live Flight TrackerFlight Track Log ✈ SET1695 ✈ 28-Oct-2013 ✈ RJOO / ITM - RJSF / FKS

Flight Track Log - Related Links

Times and Time Zones

All times are in EDT time to prevent confusion due to time zone crossing. See the SET1695 flight status page for this flight to view local times or setup timezone preferences in your user account.

Time Position Orientation Groundspeed Altitude Reporting Facility
EDT Latitude Longitude Course Direction KTS MPH feet Rate Location/Type
02:00AM 34.9881 135.8259 57° Northeast  Level Estimated
02:01AM 35.0386 135.9231 58° Northeast  Level Estimated
02:02AM 35.0889 136.0205 58° Northeast  Level Estimated
02:03AM 35.1392 136.1179 58° Northeast  Level Estimated
02:04AM 35.1895 136.2155 58° Northeast  Level Estimated
02:05AM 35.2396 136.3132 58° Northeast  Level Estimated
02:06AM 35.2897 136.4110 58° Northeast  Level Estimated
02:07AM 35.3396 136.5090 58° Northeast  Level Estimated
02:08AM 35.3895 136.6070 58° Northeast  Level Estimated
02:09AM 35.4394 136.7052 58° Northeast  Level Estimated
02:10AM 35.4891 136.8035 58° Northeast  Level Estimated
02:11AM 35.5388 136.9020 58° Northeast  Level Estimated
02:12AM 35.5884 137.0005 58° Northeast  Level Estimated
02:13AM 35.6379 137.0992 58° Northeast  Level Estimated
02:14AM 35.6873 137.1980 58° Northeast  Level Estimated
02:15AM 35.7366 137.2969 58° Northeast  Level Estimated
02:16AM 35.7859 137.3959 58° Northeast  Level Estimated
02:17AM 35.8351 137.4951 59° Northeast  Level Estimated
02:18AM 35.8842 137.5944 59° Northeast  Level Estimated
02:19AM 35.9332 137.6938 59° Northeast  Level Estimated
02:20AM 35.9821 137.7933 59° Northeast  Level Estimated
02:21AM 36.0310 137.8930 59° Northeast  Level Estimated
02:22AM 36.0798 137.9928 59° Northeast  Level Estimated
02:23AM 36.1284 138.0927 59° Northeast  Level Estimated
02:24AM 36.1771 138.1927 59° Northeast  Level Estimated
02:25AM 36.2256 138.2928 59° Northeast  Level Estimated
02:26AM 36.2740 138.3931 59° Northeast  Level Estimated
02:27AM 36.3224 138.4935 59° Northeast  Level Estimated
02:28AM 36.3706 138.5941 59° Northeast  Level Estimated
02:29AM 36.4188 138.6947 59° Northeast  Level Estimated
02:30AM 36.4669 138.7955 59° Northeast  Level Estimated
02:31AM 36.5149 138.8964 59° Northeast  Level Estimated
02:32AM 36.5629 138.9974 59° Northeast  Level Estimated
02:33AM 36.6107 139.0985 59° Northeast  Level Estimated
02:34AM 36.6585 139.1998 60° Northeast  Level Estimated
02:35AM 36.7062 139.3012 60° Northeast  Level Estimated
02:36AM 36.7537 139.4028 60° Northeast  Level Estimated
02:37AM 36.8012 139.5044 60° Northeast  Level Estimated
02:38AM 36.8487 139.6062 60° Northeast  Level Estimated
02:39AM 36.8960 139.7081 60° Northeast  Level Estimated
02:40AM 36.9432 139.8101 60° Northeast  Level Estimated
02:41AM 36.9904 139.9123 60° Northeast  Level Estimated
02:42AM 37.0374 140.0146 60° Northeast  Level Estimated
02:43AM 37.0844 140.1170 60° Northeast  Level Estimated
02:44AM 37.1313 140.2195 60° Northeast  Level Estimated
02:45AM 37.1781 140.3222 60° Northeast  Level Estimated
02:46AM 37.2248 140.4250 60° Northeast  Level Estimated
02:47AM 37.2274 140.4307 60° Northeast  Level Estimated
02:48AM 37.2274 140.4307 302° West  Level Estimated
02:49AM 37.2274 140.4307 302° West  Level Estimated
02:50AM 37.2274 140.4307 302° West  Level Estimated
02:51AM 37.2274 140.4307 302° West  Level Estimated
02:52AM 37.2274 140.4307 302° West  Level Estimated
02:53AM 37.2274 140.4307 302° West  Level Estimated
02:54AM 37.2274 140.4307 302° West  Level Estimated
02:55AM 37.2274 140.4307 302° West  Level Estimated
02:56AM 37.2274 140.4307 302° West  Level Estimated
02:57AM 37.2274 140.4307 302° West  Level Estimated
02:58AM 37.2274 140.4307 302° West  Level Estimated